Пилотам вертолетов

Aviation Digital Data Service (ADDS)

Output produced by METARs form (0004 UTC 16 November 2018)
found at http://aviationweather.gov/metar/data/
 
METAR text: UUWW 152330Z 14002MPS CAVOK M04/M11 Q1041 R24/190047 NOSIG
Conditions at: UUWW (MOSCOW/VNUKOVO , RU) observed 2330 UTC 15 November 2018
Temperature: -4.0°C (25°F)
Dewpoint: -11.0°C (12°F) [RH = 58%]
Pressure (altimeter): 30.74 inches Hg (1041.0 mb)
Winds: from the SE (140 degrees) at 5 MPH (4 knots; 2.1 m/s)
Visibility: 6 or more miles (10+ km)
Ceiling: ceiling and visibility are OK
Clouds: unknown
Weather: no significant weather observed at this time
Forecast for: UUWW (MOSCOW/VNUKOVO , RU)
Text: TAF UUWW 152258Z 1600/1624 17003MPS 9000 SCT015 TX01/1612Z TNM06/1603Z
Forecast period: 0000 UTC 16 November 2018 to 0000 UTC 17 November 2018
Forecast type: FROM: standard forecast or significant change
Winds: from the S (170 degrees) at 7 MPH (6 knots; 3.1 m/s)
Visibility: 6 miles (9 km)
Ceiling: at least 12,000 feet AGL
Clouds: scattered clouds at 1500 feet AGL
Weather: no significant weather forecast for this period
Text: PROB40
Forecast period: 0000 to 0600 UTC 16 November 2018
Forecast type: TEMPORARY: The following changes expected for less than half the time period
Visibility: 0.19 miles (0.31 km)
Ceiling: at least 12,000 feet AGL
Clouds: scattered clouds at 200 feet AGL
Weather: FZFG  (freezing fog)
METAR text: UUEE 152330Z 07001MPS CAVOK M04/M10 Q1041 R24C/510145 NOSIG
Conditions at: UUEE (MOSCOW/SHEREMET', RU) observed 2330 UTC 15 November 2018
Temperature: -4.0°C (25°F)
Dewpoint: -10.0°C (14°F) [RH = 63%]
Pressure (altimeter): 30.74 inches Hg (1041.0 mb)
Winds: from the ENE (70 degrees) at 2 MPH (2 knots; 1.0 m/s)
Visibility: 6 or more miles (10+ km)
Ceiling: ceiling and visibility are OK
Clouds: unknown
Weather: no significant weather observed at this time
Forecast for: UUEE (MOSCOW/SHEREMET', RU)
Text: TAF UUEE 152258Z 1600/1624 VRB01MPS 9000 SCT030 TX03/1612Z TNM06/1603Z
Forecast period: 0000 UTC 16 November 2018 to 0000 UTC 17 November 2018
Forecast type: FROM: standard forecast or significant change
Winds: variable direction winds at 2 MPH (2 knots; 1.0 m/s)
Visibility: 6 miles (9 km)
Ceiling: at least 12,000 feet AGL
Clouds: scattered clouds at 3000 feet AGL
Weather: no significant weather forecast for this period
Text: TEMPO 1600/1606 0900 FZFG SCT002
Forecast period: 0000 to 0600 UTC 16 November 2018
Forecast type: TEMPORARY: The following changes expected for less than half the time period
Visibility: 0.56 miles (0.90 km)
Ceiling: at least 12,000 feet AGL
Clouds: scattered clouds at 200 feet AGL
Weather: FZFG  (freezing fog)
METAR text: UUDD 152330Z 16002MPS CAVOK M09/M12 Q1041 R14R/010095 NOSIG
Conditions at: UUDD (MOSCOW/DOMODEDOV, RU) observed 2330 UTC 15 November 2018
Temperature: -9.0°C (16°F)
Dewpoint: -12.0°C (10°F) [RH = 79%]
Pressure (altimeter): 30.74 inches Hg (1041.0 mb)
Winds: from the SSE (160 degrees) at 5 MPH (4 knots; 2.1 m/s)
Visibility: 6 or more miles (10+ km)
Ceiling: ceiling and visibility are OK
Clouds: unknown
Weather: no significant weather observed at this time
Forecast for: UUDD (MOSCOW/DOMODEDOV, RU)
Text: TAF UUDD 152255Z 1600/1706 VRB01MPS 8000 SCT030 TX01/1611Z TNM10/1604Z
Forecast period: 0000 to 2000 UTC 16 November 2018
Forecast type: FROM: standard forecast or significant change
Winds: variable direction winds at 2 MPH (2 knots; 1.0 m/s)
Visibility: 5 miles (8 km)
Ceiling: at least 12,000 feet AGL
Clouds: scattered clouds at 3000 feet AGL
Weather: no significant weather forecast for this period
Text: PROB40
Forecast period: 0000 to 0600 UTC 16 November 2018
Forecast type: TEMPORARY: The following changes expected for less than half the time period
Visibility: 0.19 miles (0.31 km)
Ceiling: at least 12,000 feet AGL
Clouds: few clouds at 200 feet AGL
Weather: FZFG  (freezing fog)
Text: TEMPO 1600/1606 0300 FZFG FEW002
Forecast period: 2000 UTC 16 November 2018 to 0600 UTC 17 November 2018
Forecast type: BECOMING: Conditions expected to become as follows by 2200 UTC 16 November 2018
Winds: from the W (260 degrees) at 9 MPH (8 knots; 4.1 m/s)
Visibility: 5 miles (8 km)
Ceiling: at least 12,000 feet AGL
Clouds: scattered clouds at 3000 feet AGL
Weather: no significant weather forecast for this period